createdAt,value
2018-09-14T00:01:51.119Z,1023.5
2018-09-14T00:06:51.634Z,1023.6
2018-09-14T00:11:51.854Z,1023.6
2018-09-14T00:16:51.103Z,1023.5
2018-09-14T00:21:51.601Z,1023.5
2018-09-14T00:26:51.193Z,1023.5
2018-09-14T00:31:51.419Z,1023.5
2018-09-14T00:36:51.909Z,1023.5
2018-09-14T00:41:51.149Z,1023.5
2018-09-14T00:46:51.702Z,1023.4
2018-09-14T00:51:51.860Z,1023.4
2018-09-14T00:56:51.478Z,1023.4
2018-09-14T01:01:51.782Z,1023.4
2018-09-14T01:06:51.290Z,1023.4
2018-09-14T01:11:51.547Z,1023.5
2018-09-14T01:16:51.793Z,1023.4
2018-09-14T01:21:51.332Z,1023.3
2018-09-14T01:26:51.864Z,1023.3
2018-09-14T01:31:51.319Z,1023.4
2018-09-14T01:36:51.746Z,1023.3
2018-09-14T01:41:52.061Z,1023.3
2018-09-14T01:46:51.265Z,1023.3
2018-09-14T01:51:51.613Z,1023.2
2018-09-14T01:56:51.987Z,1023.2
2018-09-14T02:01:51.456Z,1023.2
2018-09-14T02:06:52.155Z,1023.2
2018-09-14T02:11:51.332Z,1023.1
2018-09-14T02:16:51.539Z,1023.2
2018-09-14T02:21:52.024Z,1023.2
2018-09-14T02:26:51.569Z,1023.1
2018-09-14T02:31:51.970Z,1023.1
2018-09-14T02:36:51.390Z,1023.1
2018-09-14T02:41:51.750Z,1023
2018-09-14T02:46:51.813Z,1023
2018-09-14T02:51:51.293Z,1023
2018-09-14T02:56:51.863Z,1022.9
2018-09-14T03:01:51.198Z,1022.9
2018-09-14T03:06:51.727Z,1023
2018-09-14T03:11:51.926Z,1022.9
2018-09-14T03:16:51.192Z,1022.9
2018-09-14T03:21:51.674Z,1022.9
2018-09-14T03:26:51.408Z,1022.9
2018-09-14T03:31:51.616Z,1022.9
2018-09-14T03:36:52.073Z,1023
2018-09-14T03:41:51.377Z,1022.9
2018-09-14T03:46:51.562Z,1023
2018-09-14T03:51:52.026Z,1022.9
2018-09-14T03:56:51.636Z,1023
2018-09-14T04:01:51.859Z,1022.9
2018-09-14T04:06:51.361Z,1022.8
2018-09-14T04:11:51.629Z,1022.9
2018-09-14T04:16:51.899Z,1022.9
2018-09-14T04:21:51.334Z,1022.9
2018-09-14T04:26:51.988Z,1023
2018-09-14T04:31:51.246Z,1023
2018-09-14T04:36:51.763Z,1023
2018-09-14T04:41:51.908Z,1022.8
2018-09-14T04:46:51.211Z,1023
2018-09-14T04:51:51.679Z,1022.9
2018-09-14T04:56:51.427Z,1022.9
2018-09-14T05:01:51.697Z,1022.9
2018-09-14T05:06:51.129Z,1023
2018-09-14T05:11:51.196Z,1022.9
2018-09-14T05:16:51.420Z,1023
2018-09-14T05:21:51.855Z,1022.9
2018-09-14T05:26:51.471Z,1022.9
2018-09-14T05:31:51.683Z,1023
2018-09-14T05:36:51.215Z,1023.1
2018-09-14T05:41:51.474Z,1023
2018-09-14T05:46:51.659Z,1023.1
2018-09-14T05:51:51.163Z,1023.2
2018-09-14T05:56:51.779Z,1023.2
2018-09-14T06:01:51.010Z,1023.2
2018-09-14T06:06:51.543Z,1023.2
2018-09-14T06:11:51.805Z,1023.3
2018-09-14T06:16:51.295Z,1023.2
2018-09-14T06:21:51.539Z,1023.2
2018-09-14T06:26:51.171Z,1023.2
2018-09-14T06:31:51.373Z,1023.2
2018-09-14T06:36:51.873Z,1023.2
2018-09-14T06:41:51.131Z,1023.2
2018-09-14T06:46:51.334Z,1023.2
2018-09-14T06:51:51.878Z,1023.3
2018-09-14T06:56:51.503Z,1023.2
2018-09-14T07:01:51.734Z,1023.2
2018-09-14T07:06:51.238Z,1023.2
2018-09-14T07:11:51.473Z,1023.2
2018-09-14T07:16:51.721Z,1023.1
2018-09-14T07:21:51.879Z,1023.2
2018-09-14T07:26:51.895Z,1023.1
2018-09-14T07:31:52.404Z,1023.2
2018-09-14T07:36:51.521Z,1023.2
2018-09-14T07:41:51.763Z,1023.2
2018-09-14T07:46:50.998Z,1023.3
2018-09-14T07:51:51.486Z,1023.3
2018-09-14T07:56:51.135Z,1023.3
2018-09-14T08:01:51.379Z,1023.3
2018-09-14T08:06:51.911Z,1023.3
2018-09-14T08:11:51.367Z,1023.3
2018-09-14T08:16:51.359Z,1023.3
2018-09-14T08:21:53.573Z,1023.3
2018-09-14T08:26:52.064Z,1023.3
2018-09-14T08:31:51.738Z,1023.2
2018-09-14T08:36:51.184Z,1023.2
2018-09-14T08:41:51.456Z,1023.2
2018-09-14T08:46:51.680Z,1023.3
2018-09-14T08:51:51.185Z,1023.3
2018-09-14T08:56:51.780Z,1023.3
2018-09-14T09:01:51.072Z,1023.2
2018-09-14T09:06:51.534Z,1023.2
2018-09-14T09:11:51.790Z,1023.2
2018-09-14T09:16:51.030Z,1023.2
2018-09-14T09:21:51.574Z,1023.2
2018-09-14T09:26:51.195Z,1023.2
2018-09-14T09:31:51.393Z,1023.1
2018-09-14T09:36:51.854Z,1023.2
2018-09-14T09:41:51.152Z,1023.1
2018-09-14T09:46:51.365Z,1023.1
2018-09-14T09:51:51.846Z,1023
2018-09-14T09:56:51.842Z,1023
2018-09-14T10:01:51.671Z,1023
2018-09-14T10:06:51.214Z,1023
2018-09-14T10:11:51.409Z,1023
2018-09-14T10:16:51.683Z,1022.9
2018-09-14T10:21:51.966Z,1022.9
2018-09-14T10:26:52.245Z,1022.9
2018-09-14T10:31:51.044Z,1022.9
2018-09-14T10:36:51.797Z,1022.9
2018-09-14T10:41:51.746Z,1022.8
2018-09-14T10:46:50.984Z,1022.8
2018-09-14T10:51:51.443Z,1022.7
2018-09-14T10:56:51.136Z,1022.6
2018-09-14T11:01:51.366Z,1022.7
2018-09-14T11:06:52.262Z,1022.6
2018-09-14T11:11:51.217Z,1022.6
2018-09-14T11:16:51.383Z,1022.5
2018-09-14T11:21:51.869Z,1022.5
2018-09-14T11:26:51.512Z,1022.4
2018-09-14T11:31:51.730Z,1022.4
2018-09-14T11:36:51.194Z,1022.4
2018-09-14T11:41:51.466Z,1022.3
2018-09-14T11:46:51.756Z,1022.3
2018-09-14T11:51:51.182Z,1022.3
2018-09-14T11:56:52.013Z,1022.3
2018-09-14T12:01:51.098Z,1022.3
2018-09-14T12:06:51.664Z,1022.3
2018-09-14T12:11:51.854Z,1022.3
2018-09-14T12:16:51.066Z,1022.3
2018-09-14T12:21:51.590Z,1022.3
2018-09-14T12:26:51.214Z,1022.3
2018-09-14T12:31:51.451Z,1022.3
2018-09-14T12:36:51.956Z,1022.3
2018-09-14T12:41:51.206Z,1021.6
2018-09-14T12:46:51.406Z,1021.6
2018-09-14T12:51:51.886Z,1021.6
2018-09-14T12:56:51.515Z,1021.5
2018-09-14T13:01:51.772Z,1021.5
2018-09-14T13:06:51.286Z,1021.5
2018-09-14T13:11:51.545Z,1021.4
2018-09-14T13:16:51.805Z,1021.4
2018-09-14T13:21:51.281Z,1021.4
2018-09-14T13:26:51.881Z,1021.4
2018-09-14T13:31:51.131Z,1021.4
2018-09-14T13:36:51.602Z,1021.3
2018-09-14T13:41:51.857Z,1021.4
2018-09-14T13:46:51.134Z,1021.4
2018-09-14T13:51:51.570Z,1021.3
2018-09-14T13:56:51.225Z,1021.2
2018-09-14T14:01:51.464Z,1021.3
2018-09-14T14:06:51.960Z,1021.2
2018-09-14T14:11:51.240Z,1021.2
2018-09-14T14:16:51.889Z,1021.2
2018-09-14T14:21:51.908Z,1021.2
2018-09-14T14:26:51.575Z,1021
2018-09-14T14:31:51.800Z,1021
2018-09-14T14:36:51.292Z,1021
2018-09-14T14:41:51.842Z,1021
2018-09-14T14:46:51.762Z,1020.9
2018-09-14T14:51:51.231Z,1020.9
2018-09-14T14:56:51.878Z,1021
2018-09-14T15:01:51.169Z,1020.9
2018-09-14T15:06:51.698Z,1020.9
2018-09-14T15:11:51.944Z,1020.9
2018-09-14T15:16:51.222Z,1020.9
2018-09-14T15:21:51.686Z,1020.9
2018-09-14T15:26:51.337Z,1020.9
2018-09-14T15:31:51.500Z,1020.9
2018-09-14T15:36:51.943Z,1020.9
2018-09-14T15:41:51.282Z,1020.9
2018-09-14T15:46:51.460Z,1020.9
2018-09-14T15:51:51.917Z,1020.9
2018-09-14T15:56:51.604Z,1020.9
2018-09-14T16:01:51.828Z,1020.9
2018-09-14T16:06:51.280Z,1020.9
2018-09-14T16:11:51.571Z,1021
2018-09-14T16:16:51.801Z,1020.9
2018-09-14T16:21:51.225Z,1020.9
2018-09-14T16:26:51.868Z,1021
2018-09-14T16:31:51.650Z,1021
2018-09-14T16:36:51.571Z,1021.1
2018-09-14T16:41:52.623Z,1021.1
2018-09-14T16:46:51.084Z,1021.1
2018-09-14T16:51:51.505Z,1021
2018-09-14T16:56:51.212Z,1021
2018-09-14T17:01:51.378Z,1021
2018-09-14T17:06:51.894Z,1021
2018-09-14T17:11:51.157Z,1021.1
2018-09-14T17:16:51.418Z,1020.9
2018-09-14T17:21:51.838Z,1021
2018-09-14T17:26:51.411Z,1021.1
2018-09-14T17:31:51.707Z,1021.1
2018-09-14T17:36:51.222Z,1021.1
2018-09-14T17:41:51.409Z,1021.3
2018-09-14T17:46:51.738Z,1021.3
2018-09-14T17:51:51.145Z,1021.2
2018-09-14T17:56:51.735Z,1021.3
2018-09-14T18:01:51.032Z,1021.4
2018-09-14T18:06:51.532Z,1021.4
2018-09-14T18:11:51.791Z,1021.4
2018-09-14T18:16:51.087Z,1021.5
2018-09-14T18:21:51.548Z,1021.4
2018-09-14T18:26:51.117Z,1021.6
2018-09-14T18:31:51.481Z,1021.6
2018-09-14T18:36:51.879Z,1021.7
2018-09-14T18:41:51.130Z,1021.7
2018-09-14T18:46:53.075Z,1021.7
2018-09-14T18:51:51.886Z,1021.7
2018-09-14T18:56:51.598Z,1021.7
2018-09-14T19:01:51.911Z,1021.7
2018-09-14T19:06:51.304Z,1021.7
2018-09-14T19:11:52.643Z,1021.8
2018-09-14T19:16:51.894Z,1021.8
2018-09-14T19:21:51.196Z,1021.8
2018-09-14T19:26:51.884Z,1022
2018-09-14T19:31:51.262Z,1021.9
2018-09-14T19:36:51.580Z,1022
2018-09-14T19:41:51.866Z,1022.1
2018-09-14T19:46:51.165Z,1022
2018-09-14T19:51:51.557Z,1022
2018-09-14T19:56:51.135Z,1022
2018-09-14T20:01:51.476Z,1022
2018-09-14T20:06:51.949Z,1021.9
2018-09-14T20:11:51.203Z,1021.9
2018-09-14T20:16:51.635Z,1021.9
2018-09-14T20:21:51.936Z,1022.1
2018-09-14T20:26:51.544Z,1022.3
2018-09-14T20:31:51.845Z,1022.2
2018-09-14T20:36:51.337Z,1022.1
2018-09-14T20:41:51.466Z,1022.1
2018-09-14T20:46:51.901Z,1022.1
2018-09-14T20:51:51.250Z,1022.2
2018-09-14T20:56:51.858Z,1022.1
2018-09-14T21:01:51.177Z,1022.3
2018-09-14T21:06:51.686Z,1022.3
2018-09-14T21:11:51.804Z,1022.2
2018-09-14T21:16:51.185Z,1022.5
2018-09-14T21:21:51.577Z,1022.5
2018-09-14T21:26:51.209Z,1022.6
2018-09-14T21:31:51.502Z,1022.5
2018-09-14T21:36:51.969Z,1022.5
2018-09-14T21:41:51.186Z,1022.5
2018-09-14T21:46:51.545Z,1022.7
2018-09-14T21:51:52.003Z,1022.7
2018-09-14T21:56:51.532Z,1022.6
2018-09-14T22:01:51.877Z,1022.7
2018-09-14T22:06:51.333Z,1022.7
2018-09-14T22:11:51.507Z,1022.7
2018-09-14T22:16:51.862Z,1022.7
2018-09-14T22:21:51.581Z,1022.9
2018-09-14T22:26:51.860Z,1022.8
2018-09-14T22:31:51.136Z,1022.8
2018-09-14T22:36:51.609Z,1022.8
2018-09-14T22:41:51.811Z,1022.8
2018-09-14T22:46:51.111Z,1022.9
2018-09-14T22:51:51.567Z,1022.9
2018-09-14T22:56:51.172Z,1022.9
2018-09-14T23:01:51.518Z,1022.9
2018-09-14T23:06:51.948Z,1022.9
2018-09-14T23:11:51.183Z,1022.9
2018-09-14T23:16:51.432Z,1022.8
2018-09-14T23:21:52.034Z,1022.9
2018-09-14T23:26:51.472Z,1023.1
2018-09-14T23:31:51.784Z,1023
2018-09-14T23:36:51.384Z,1023.1
2018-09-14T23:41:51.462Z,1023.2
2018-09-14T23:46:51.770Z,1023.3
2018-09-14T23:51:51.211Z,1023.1
2018-09-14T23:56:51.817Z,1023.1
